sensor_id;sensor_type;location;lat;lon;timestamp;P1;durP1;ratioP1;P2;durP2;ratioP2
25107;SDS011;13090;53.422;7.670;2022-12-16T00:02:20;30.13;;;18.13;;
25107;SDS011;13090;53.422;7.670;2022-12-16T00:07:22;28.10;;;16.67;;
25107;SDS011;13090;53.422;7.670;2022-12-16T00:12:25;36.80;;;19.60;;
25107;SDS011;13090;53.422;7.670;2022-12-16T00:17:28;30.27;;;19.10;;
25107;SDS011;13090;53.422;7.670;2022-12-16T00:22:30;29.92;;;17.83;;
25107;SDS011;13090;53.422;7.670;2022-12-16T00:27:32;31.40;;;18.73;;
25107;SDS011;13090;53.422;7.670;2022-12-16T00:32:36;33.10;;;19.23;;
25107;SDS011;13090;53.422;7.670;2022-12-16T00:37:38;31.40;;;19.17;;
25107;SDS011;13090;53.422;7.670;2022-12-16T00:42:40;27.15;;;18.02;;
25107;SDS011;13090;53.422;7.670;2022-12-16T00:47:44;33.80;;;19.35;;
25107;SDS011;13090;53.422;7.670;2022-12-16T00:52:46;34.05;;;19.23;;
25107;SDS011;13090;53.422;7.670;2022-12-16T00:57:49;29.55;;;17.75;;
25107;SDS011;13090;53.422;7.670;2022-12-16T01:02:53;32.83;;;18.88;;
25107;SDS011;13090;53.422;7.670;2022-12-16T01:07:55;33.85;;;19.35;;
25107;SDS011;13090;53.422;7.670;2022-12-16T01:12:58;36.75;;;17.88;;
25107;SDS011;13090;53.422;7.670;2022-12-16T01:18:01;34.88;;;19.55;;
25107;SDS011;13090;53.422;7.670;2022-12-16T01:23:03;35.10;;;20.70;;
25107;SDS011;13090;53.422;7.670;2022-12-16T01:28:06;34.70;;;19.70;;
25107;SDS011;13090;53.422;7.670;2022-12-16T01:33:10;32.33;;;19.17;;
25107;SDS011;13090;53.422;7.670;2022-12-16T01:38:12;30.67;;;19.38;;
25107;SDS011;13090;53.422;7.670;2022-12-16T01:43:14;36.20;;;20.40;;
25107;SDS011;13090;53.422;7.670;2022-12-16T01:48:23;32.17;;;19.73;;
25107;SDS011;13090;53.422;7.670;2022-12-16T01:53:41;34.58;;;19.67;;
25107;SDS011;13090;53.422;7.670;2022-12-16T01:58:45;39.40;;;21.38;;
25107;SDS011;13090;53.422;7.670;2022-12-16T02:03:49;36.92;;;21.70;;
25107;SDS011;13090;53.422;7.670;2022-12-16T02:08:56;33.53;;;20.02;;
25107;SDS011;13090;53.422;7.670;2022-12-16T02:14:05;36.20;;;21.55;;
25107;SDS011;13090;53.422;7.670;2022-12-16T02:25:05;37.45;;;22.00;;
25107;SDS011;13090;53.422;7.670;2022-12-16T02:30:36;41.85;;;21.27;;
25107;SDS011;13090;53.422;7.670;2022-12-16T02:35:58;42.05;;;22.33;;
25107;SDS011;13090;53.422;7.670;2022-12-16T02:41:10;49.80;;;24.52;;
25107;SDS011;13090;53.422;7.670;2022-12-16T02:46:19;48.58;;;24.42;;
25107;SDS011;13090;53.422;7.670;2022-12-16T02:51:24;48.67;;;24.10;;
25107;SDS011;13090;53.422;7.670;2022-12-16T02:56:34;39.83;;;23.40;;
25107;SDS011;13090;53.422;7.670;2022-12-16T03:01:50;43.80;;;23.23;;
25107;SDS011;13090;53.422;7.670;2022-12-16T03:06:57;45.30;;;23.10;;
25107;SDS011;13090;53.422;7.670;2022-12-16T03:12:02;44.17;;;24.13;;
25107;SDS011;13090;53.422;7.670;2022-12-16T03:17:10;50.33;;;24.90;;
25107;SDS011;13090;53.422;7.670;2022-12-16T03:22:15;56.50;;;25.40;;
25107;SDS011;13090;53.422;7.670;2022-12-16T03:27:23;47.17;;;24.40;;
25107;SDS011;13090;53.422;7.670;2022-12-16T03:32:34;45.78;;;23.98;;
25107;SDS011;13090;53.422;7.670;2022-12-16T03:37:38;51.15;;;25.23;;
25107;SDS011;13090;53.422;7.670;2022-12-16T03:42:43;56.83;;;24.52;;
25107;SDS011;13090;53.422;7.670;2022-12-16T03:47:49;59.42;;;26.05;;
25107;SDS011;13090;53.422;7.670;2022-12-16T03:52:51;54.00;;;25.97;;
25107;SDS011;13090;53.422;7.670;2022-12-16T03:57:54;56.08;;;25.73;;
25107;SDS011;13090;53.422;7.670;2022-12-16T04:02:58;57.20;;;25.25;;
25107;SDS011;13090;53.422;7.670;2022-12-16T04:08:01;49.35;;;24.20;;
25107;SDS011;13090;53.422;7.670;2022-12-16T04:13:03;56.17;;;24.10;;
25107;SDS011;13090;53.422;7.670;2022-12-16T04:18:07;55.03;;;23.95;;
25107;SDS011;13090;53.422;7.670;2022-12-16T04:23:14;50.05;;;24.25;;
25107;SDS011;13090;53.422;7.670;2022-12-16T04:28:17;46.90;;;23.67;;
25107;SDS011;13090;53.422;7.670;2022-12-16T04:33:21;43.83;;;21.77;;
25107;SDS011;13090;53.422;7.670;2022-12-16T04:38:23;49.28;;;21.95;;
25107;SDS011;13090;53.422;7.670;2022-12-16T04:43:25;42.92;;;21.92;;
25107;SDS011;13090;53.422;7.670;2022-12-16T04:48:29;47.65;;;24.17;;
25107;SDS011;13090;53.422;7.670;2022-12-16T04:53:31;50.22;;;24.67;;
25107;SDS011;13090;53.422;7.670;2022-12-16T04:58:34;43.78;;;22.75;;
25107;SDS011;13090;53.422;7.670;2022-12-16T05:03:38;48.88;;;23.92;;
25107;SDS011;13090;53.422;7.670;2022-12-16T05:08:40;49.90;;;23.88;;
25107;SDS011;13090;53.422;7.670;2022-12-16T05:13:42;45.95;;;20.63;;
25107;SDS011;13090;53.422;7.670;2022-12-16T05:18:45;44.35;;;21.45;;
25107;SDS011;13090;53.422;7.670;2022-12-16T05:23:48;44.33;;;21.35;;
25107;SDS011;13090;53.422;7.670;2022-12-16T05:28:50;47.30;;;21.77;;
25107;SDS011;13090;53.422;7.670;2022-12-16T05:33:53;43.90;;;21.30;;
25107;SDS011;13090;53.422;7.670;2022-12-16T05:38:56;47.45;;;24.25;;
25107;SDS011;13090;53.422;7.670;2022-12-16T05:44:00;45.20;;;22.83;;
25107;SDS011;13090;53.422;7.670;2022-12-16T05:49:04;45.60;;;21.73;;
25107;SDS011;13090;53.422;7.670;2022-12-16T05:54:07;48.60;;;21.90;;
25107;SDS011;13090;53.422;7.670;2022-12-16T05:59:09;49.15;;;22.48;;
25107;SDS011;13090;53.422;7.670;2022-12-16T06:04:13;48.65;;;22.38;;
25107;SDS011;13090;53.422;7.670;2022-12-16T06:09:18;47.17;;;22.73;;
25107;SDS011;13090;53.422;7.670;2022-12-16T06:14:20;50.05;;;22.98;;
25107;SDS011;13090;53.422;7.670;2022-12-16T06:19:24;46.55;;;22.27;;
25107;SDS011;13090;53.422;7.670;2022-12-16T06:24:26;48.75;;;22.40;;
25107;SDS011;13090;53.422;7.670;2022-12-16T06:29:28;46.72;;;22.10;;
25107;SDS011;13090;53.422;7.670;2022-12-16T06:34:32;53.67;;;24.65;;
25107;SDS011;13090;53.422;7.670;2022-12-16T06:39:34;50.25;;;23.80;;
25107;SDS011;13090;53.422;7.670;2022-12-16T06:44:36;49.38;;;23.92;;
25107;SDS011;13090;53.422;7.670;2022-12-16T06:49:40;51.13;;;22.63;;
25107;SDS011;13090;53.422;7.670;2022-12-16T06:54:42;41.45;;;20.90;;
25107;SDS011;13090;53.422;7.670;2022-12-16T06:59:44;51.17;;;21.52;;
25107;SDS011;13090;53.422;7.670;2022-12-16T07:04:47;49.58;;;22.60;;
25107;SDS011;13090;53.422;7.670;2022-12-16T07:09:50;54.97;;;24.27;;
25107;SDS011;13090;53.422;7.670;2022-12-16T07:14:52;52.63;;;22.30;;
25107;SDS011;13090;53.422;7.670;2022-12-16T07:19:56;44.70;;;20.98;;
25107;SDS011;13090;53.422;7.670;2022-12-16T07:24:58;50.92;;;21.55;;
25107;SDS011;13090;53.422;7.670;2022-12-16T07:30:00;61.28;;;23.13;;
25107;SDS011;13090;53.422;7.670;2022-12-16T07:35:05;54.00;;;24.83;;
25107;SDS011;13090;53.422;7.670;2022-12-16T07:40:07;53.90;;;22.35;;
25107;SDS011;13090;53.422;7.670;2022-12-16T07:45:10;53.90;;;22.55;;
25107;SDS011;13090;53.422;7.670;2022-12-16T07:50:14;50.05;;;23.33;;
25107;SDS011;13090;53.422;7.670;2022-12-16T07:55:16;53.47;;;25.20;;
25107;SDS011;13090;53.422;7.670;2022-12-16T08:00:18;44.45;;;22.15;;
25107;SDS011;13090;53.422;7.670;2022-12-16T08:05:22;52.45;;;22.83;;
25107;SDS011;13090;53.422;7.670;2022-12-16T08:10:24;48.00;;;21.20;;
25107;SDS011;13090;53.422;7.670;2022-12-16T08:15:26;49.50;;;23.15;;
25107;SDS011;13090;53.422;7.670;2022-12-16T08:20:30;47.20;;;22.02;;
25107;SDS011;13090;53.422;7.670;2022-12-16T08:25:32;49.88;;;24.83;;
25107;SDS011;13090;53.422;7.670;2022-12-16T08:30:34;52.85;;;24.10;;
25107;SDS011;13090;53.422;7.670;2022-12-16T08:35:38;45.38;;;22.15;;
25107;SDS011;13090;53.422;7.670;2022-12-16T08:40:41;50.80;;;24.88;;
25107;SDS011;13090;53.422;7.670;2022-12-16T08:45:44;46.42;;;22.50;;
25107;SDS011;13090;53.422;7.670;2022-12-16T08:50:48;49.38;;;22.95;;
25107;SDS011;13090;53.422;7.670;2022-12-16T08:55:50;50.17;;;26.77;;
25107;SDS011;13090;53.422;7.670;2022-12-16T09:00:56;44.42;;;21.73;;
25107;SDS011;13090;53.422;7.670;2022-12-16T09:06:08;50.00;;;24.38;;
25107;SDS011;13090;53.422;7.670;2022-12-16T09:11:10;43.10;;;24.00;;
25107;SDS011;13090;53.422;7.670;2022-12-16T09:16:12;42.70;;;22.92;;
25107;SDS011;13090;53.422;7.670;2022-12-16T09:21:21;48.33;;;25.65;;
25107;SDS011;13090;53.422;7.670;2022-12-16T09:26:23;50.05;;;26.17;;
25107;SDS011;13090;53.422;7.670;2022-12-16T09:31:25;44.83;;;24.85;;
25107;SDS011;13090;53.422;7.670;2022-12-16T09:36:29;51.00;;;24.95;;
25107;SDS011;13090;53.422;7.670;2022-12-16T09:41:35;40.97;;;22.35;;
25107;SDS011;13090;53.422;7.670;2022-12-16T09:46:47;40.92;;;21.88;;
25107;SDS011;13090;53.422;7.670;2022-12-16T09:51:54;50.53;;;23.35;;
25107;SDS011;13090;53.422;7.670;2022-12-16T09:56:58;45.85;;;22.17;;
25107;SDS011;13090;53.422;7.670;2022-12-16T10:02:06;44.78;;;21.58;;
25107;SDS011;13090;53.422;7.670;2022-12-16T10:07:15;44.58;;;23.73;;
25107;SDS011;13090;53.422;7.670;2022-12-16T10:12:24;46.38;;;24.15;;
25107;SDS011;13090;53.422;7.670;2022-12-16T10:17:33;44.13;;;23.27;;
25107;SDS011;13090;53.422;7.670;2022-12-16T10:22:40;47.05;;;25.27;;
25107;SDS011;13090;53.422;7.670;2022-12-16T10:27:57;46.55;;;25.75;;
25107;SDS011;13090;53.422;7.670;2022-12-16T10:33:12;55.97;;;25.67;;
25107;SDS011;13090;53.422;7.670;2022-12-16T10:38:36;48.15;;;25.38;;
25107;SDS011;13090;53.422;7.670;2022-12-16T10:44:15;54.20;;;26.55;;
25107;SDS011;13090;53.422;7.670;2022-12-16T10:49:23;61.15;;;28.42;;
25107;SDS011;13090;53.422;7.670;2022-12-16T10:54:29;55.40;;;27.17;;
25107;SDS011;13090;53.422;7.670;2022-12-16T10:59:36;52.22;;;26.08;;
25107;SDS011;13090;53.422;7.670;2022-12-16T11:04:41;52.22;;;26.15;;
25107;SDS011;13090;53.422;7.670;2022-12-16T11:09:48;56.38;;;27.75;;
25107;SDS011;13090;53.422;7.670;2022-12-16T11:14:51;50.58;;;26.58;;
25107;SDS011;13090;53.422;7.670;2022-12-16T11:20:15;62.63;;;28.35;;
25107;SDS011;13090;53.422;7.670;2022-12-16T11:25:20;55.35;;;26.95;;
25107;SDS011;13090;53.422;7.670;2022-12-16T11:30:22;50.28;;;26.15;;
25107;SDS011;13090;53.422;7.670;2022-12-16T11:35:25;50.78;;;26.27;;
25107;SDS011;13090;53.422;7.670;2022-12-16T11:40:31;49.72;;;26.75;;
25107;SDS011;13090;53.422;7.670;2022-12-16T11:45:34;61.83;;;28.98;;
25107;SDS011;13090;53.422;7.670;2022-12-16T11:50:37;56.03;;;27.33;;
25107;SDS011;13090;53.422;7.670;2022-12-16T11:55:45;61.25;;;28.58;;
25107;SDS011;13090;53.422;7.670;2022-12-16T12:01:11;55.33;;;27.73;;
25107;SDS011;13090;53.422;7.670;2022-12-16T12:06:20;59.47;;;27.30;;
25107;SDS011;13090;53.422;7.670;2022-12-16T12:11:31;61.10;;;28.52;;
25107;SDS011;13090;53.422;7.670;2022-12-16T12:16:43;56.28;;;27.80;;
25107;SDS011;13090;53.422;7.670;2022-12-16T12:22:00;65.85;;;30.77;;
25107;SDS011;13090;53.422;7.670;2022-12-16T12:27:08;63.60;;;30.73;;
25107;SDS011;13090;53.422;7.670;2022-12-16T12:32:19;64.35;;;30.25;;
25107;SDS011;13090;53.422;7.670;2022-12-16T12:37:27;57.08;;;28.80;;
25107;SDS011;13090;53.422;7.670;2022-12-16T12:42:36;62.58;;;29.50;;
25107;SDS011;13090;53.422;7.670;2022-12-16T12:47:52;60.07;;;29.20;;
25107;SDS011;13090;53.422;7.670;2022-12-16T12:53:09;65.00;;;29.15;;
25107;SDS011;13090;53.422;7.670;2022-12-16T12:58:21;62.58;;;29.88;;
25107;SDS011;13090;53.422;7.670;2022-12-16T13:03:26;66.30;;;31.42;;
25107;SDS011;13090;53.422;7.670;2022-12-16T13:08:44;63.75;;;29.83;;
25107;SDS011;13090;53.422;7.670;2022-12-16T13:13:58;58.00;;;29.45;;
25107;SDS011;13090;53.422;7.670;2022-12-16T13:24:43;68.93;;;30.27;;
25107;SDS011;13090;53.422;7.670;2022-12-16T13:29:59;57.20;;;29.73;;
25107;SDS011;13090;53.422;7.670;2022-12-16T13:35:14;60.33;;;27.95;;
25107;SDS011;13090;53.422;7.670;2022-12-16T13:40:19;63.08;;;29.67;;
25107;SDS011;13090;53.422;7.670;2022-12-16T13:45:31;59.03;;;27.15;;
25107;SDS011;13090;53.422;7.670;2022-12-16T13:50:35;66.43;;;30.95;;
25107;SDS011;13090;53.422;7.670;2022-12-16T13:55:40;68.82;;;30.45;;
25107;SDS011;13090;53.422;7.670;2022-12-16T14:00:56;68.45;;;32.13;;
25107;SDS011;13090;53.422;7.670;2022-12-16T14:06:08;62.25;;;30.35;;
25107;SDS011;13090;53.422;7.670;2022-12-16T14:11:17;58.25;;;27.55;;
25107;SDS011;13090;53.422;7.670;2022-12-16T14:16:27;64.73;;;30.73;;
25107;SDS011;13090;53.422;7.670;2022-12-16T14:21:38;56.90;;;29.00;;
25107;SDS011;13090;53.422;7.670;2022-12-16T14:26:48;63.50;;;30.17;;
25107;SDS011;13090;53.422;7.670;2022-12-16T14:31:52;60.00;;;28.35;;
25107;SDS011;13090;53.422;7.670;2022-12-16T14:36:54;63.72;;;28.00;;
25107;SDS011;13090;53.422;7.670;2022-12-16T14:41:57;61.97;;;29.63;;
25107;SDS011;13090;53.422;7.670;2022-12-16T14:47:01;58.25;;;28.35;;
25107;SDS011;13090;53.422;7.670;2022-12-16T14:52:11;71.65;;;31.35;;
25107;SDS011;13090;53.422;7.670;2022-12-16T14:57:17;69.32;;;29.92;;
25107;SDS011;13090;53.422;7.670;2022-12-16T15:02:24;63.63;;;30.10;;
25107;SDS011;13090;53.422;7.670;2022-12-16T15:07:32;52.72;;;25.80;;
25107;SDS011;13090;53.422;7.670;2022-12-16T15:12:39;63.50;;;30.60;;
25107;SDS011;13090;53.422;7.670;2022-12-16T15:17:47;50.03;;;25.83;;
25107;SDS011;13090;53.422;7.670;2022-12-16T15:22:52;63.85;;;29.48;;
25107;SDS011;13090;53.422;7.670;2022-12-16T15:27:54;64.50;;;32.60;;
25107;SDS011;13090;53.422;7.670;2022-12-16T15:33:04;65.72;;;32.25;;
25107;SDS011;13090;53.422;7.670;2022-12-16T15:38:09;71.75;;;34.55;;
25107;SDS011;13090;53.422;7.670;2022-12-16T15:43:20;83.07;;;38.50;;
25107;SDS011;13090;53.422;7.670;2022-12-16T15:48:27;68.57;;;32.72;;
25107;SDS011;13090;53.422;7.670;2022-12-16T15:53:32;78.43;;;34.35;;
25107;SDS011;13090;53.422;7.670;2022-12-16T15:58:37;80.18;;;40.53;;
25107;SDS011;13090;53.422;7.670;2022-12-16T16:03:42;77.30;;;38.13;;
25107;SDS011;13090;53.422;7.670;2022-12-16T16:08:50;79.88;;;40.28;;
25107;SDS011;13090;53.422;7.670;2022-12-16T16:13:52;81.82;;;39.78;;
25107;SDS011;13090;53.422;7.670;2022-12-16T16:19:02;104.68;;;49.70;;
25107;SDS011;13090;53.422;7.670;2022-12-16T16:24:05;79.32;;;38.88;;
25107;SDS011;13090;53.422;7.670;2022-12-16T16:29:08;73.97;;;38.08;;
25107;SDS011;13090;53.422;7.670;2022-12-16T16:34:12;73.45;;;33.58;;
25107;SDS011;13090;53.422;7.670;2022-12-16T16:39:14;72.40;;;37.03;;
25107;SDS011;13090;53.422;7.670;2022-12-16T16:44:16;82.22;;;37.45;;
25107;SDS011;13090;53.422;7.670;2022-12-16T16:49:22;84.00;;;36.70;;
25107;SDS011;13090;53.422;7.670;2022-12-16T16:54:29;87.22;;;36.38;;
25107;SDS011;13090;53.422;7.670;2022-12-16T16:59:31;91.28;;;37.42;;
25107;SDS011;13090;53.422;7.670;2022-12-16T17:04:34;78.43;;;35.92;;
25107;SDS011;13090;53.422;7.670;2022-12-16T17:09:36;83.55;;;38.40;;
25107;SDS011;13090;53.422;7.670;2022-12-16T17:14:38;105.68;;;41.28;;
25107;SDS011;13090;53.422;7.670;2022-12-16T17:19:42;83.53;;;37.00;;
25107;SDS011;13090;53.422;7.670;2022-12-16T17:24:44;80.45;;;32.63;;
25107;SDS011;13090;53.422;7.670;2022-12-16T17:29:51;80.15;;;35.95;;
25107;SDS011;13090;53.422;7.670;2022-12-16T17:34:55;78.78;;;34.67;;
25107;SDS011;13090;53.422;7.670;2022-12-16T17:39:58;81.80;;;36.55;;
25107;SDS011;13090;53.422;7.670;2022-12-16T17:45:02;84.20;;;36.13;;
25107;SDS011;13090;53.422;7.670;2022-12-16T17:50:07;100.55;;;42.33;;
25107;SDS011;13090;53.422;7.670;2022-12-16T17:55:09;78.78;;;34.88;;
25107;SDS011;13090;53.422;7.670;2022-12-16T18:00:12;84.82;;;35.38;;
25107;SDS011;13090;53.422;7.670;2022-12-16T18:05:16;75.50;;;33.88;;
25107;SDS011;13090;53.422;7.670;2022-12-16T18:10:18;86.72;;;37.10;;
25107;SDS011;13090;53.422;7.670;2022-12-16T18:15:21;87.47;;;38.55;;
25107;SDS011;13090;53.422;7.670;2022-12-16T18:20:24;95.20;;;39.63;;
25107;SDS011;13090;53.422;7.670;2022-12-16T18:25:26;88.38;;;35.90;;
25107;SDS011;13090;53.422;7.670;2022-12-16T18:30:28;84.63;;;36.60;;
25107;SDS011;13090;53.422;7.670;2022-12-16T18:35:32;82.07;;;38.63;;
25107;SDS011;13090;53.422;7.670;2022-12-16T18:40:34;85.70;;;36.53;;
25107;SDS011;13090;53.422;7.670;2022-12-16T18:45:36;87.90;;;39.92;;
25107;SDS011;13090;53.422;7.670;2022-12-16T18:50:40;80.15;;;35.30;;
25107;SDS011;13090;53.422;7.670;2022-12-16T18:55:42;88.07;;;36.75;;
25107;SDS011;13090;53.422;7.670;2022-12-16T19:00:44;89.65;;;40.08;;
25107;SDS011;13090;53.422;7.670;2022-12-16T19:05:52;86.93;;;36.97;;
25107;SDS011;13090;53.422;7.670;2022-12-16T19:10:56;76.10;;;34.30;;
25107;SDS011;13090;53.422;7.670;2022-12-16T19:15:58;71.45;;;33.35;;
25107;SDS011;13090;53.422;7.670;2022-12-16T19:21:05;85.30;;;36.13;;
25107;SDS011;13090;53.422;7.670;2022-12-16T19:26:07;75.85;;;31.05;;
25107;SDS011;13090;53.422;7.670;2022-12-16T19:31:10;81.57;;;38.38;;
25107;SDS011;13090;53.422;7.670;2022-12-16T19:36:15;67.72;;;29.55;;
25107;SDS011;13090;53.422;7.670;2022-12-16T19:41:19;76.82;;;31.83;;
25107;SDS011;13090;53.422;7.670;2022-12-16T19:46:21;91.85;;;32.30;;
25107;SDS011;13090;53.422;7.670;2022-12-16T19:51:26;75.45;;;30.95;;
25107;SDS011;13090;53.422;7.670;2022-12-16T19:56:29;94.75;;;32.13;;
25107;SDS011;13090;53.422;7.670;2022-12-16T20:01:33;91.32;;;34.40;;
25107;SDS011;13090;53.422;7.670;2022-12-16T20:06:38;89.30;;;31.20;;
25107;SDS011;13090;53.422;7.670;2022-12-16T20:11:42;79.70;;;29.83;;
25107;SDS011;13090;53.422;7.670;2022-12-16T20:16:45;84.85;;;33.33;;
25107;SDS011;13090;53.422;7.670;2022-12-16T20:21:49;74.07;;;31.83;;
25107;SDS011;13090;53.422;7.670;2022-12-16T20:26:57;79.93;;;34.85;;
25107;SDS011;13090;53.422;7.670;2022-12-16T20:31:59;86.18;;;35.17;;
25107;SDS011;13090;53.422;7.670;2022-12-16T20:37:06;80.18;;;34.47;;
25107;SDS011;13090;53.422;7.670;2022-12-16T20:42:10;86.15;;;34.33;;
25107;SDS011;13090;53.422;7.670;2022-12-16T20:47:13;72.90;;;30.27;;
25107;SDS011;13090;53.422;7.670;2022-12-16T20:52:17;77.30;;;32.25;;
25107;SDS011;13090;53.422;7.670;2022-12-16T20:57:20;73.38;;;31.48;;
25107;SDS011;13090;53.422;7.670;2022-12-16T21:02:23;73.40;;;31.50;;
25107;SDS011;13090;53.422;7.670;2022-12-16T21:07:47;77.82;;;31.67;;
25107;SDS011;13090;53.422;7.670;2022-12-16T21:12:50;73.05;;;32.30;;
25107;SDS011;13090;53.422;7.670;2022-12-16T21:17:53;74.25;;;30.00;;
25107;SDS011;13090;53.422;7.670;2022-12-16T21:23:04;73.80;;;31.85;;
25107;SDS011;13090;53.422;7.670;2022-12-16T21:28:06;71.05;;;29.50;;
25107;SDS011;13090;53.422;7.670;2022-12-16T21:33:14;71.28;;;30.10;;
25107;SDS011;13090;53.422;7.670;2022-12-16T21:38:19;74.15;;;31.33;;
25107;SDS011;13090;53.422;7.670;2022-12-16T21:43:22;78.45;;;31.55;;
25107;SDS011;13090;53.422;7.670;2022-12-16T21:48:24;71.38;;;29.35;;
25107;SDS011;13090;53.422;7.670;2022-12-16T21:53:28;68.70;;;30.38;;
25107;SDS011;13090;53.422;7.670;2022-12-16T21:58:30;74.55;;;32.47;;
25107;SDS011;13090;53.422;7.670;2022-12-16T22:03:33;73.18;;;32.63;;
25107;SDS011;13090;53.422;7.670;2022-12-16T22:08:38;70.95;;;30.85;;
25107;SDS011;13090;53.422;7.670;2022-12-16T22:13:42;75.00;;;32.75;;
25107;SDS011;13090;53.422;7.670;2022-12-16T22:18:44;62.28;;;25.38;;
25107;SDS011;13090;53.422;7.670;2022-12-16T22:23:48;75.50;;;33.80;;
25107;SDS011;13090;53.422;7.670;2022-12-16T22:28:50;71.38;;;31.17;;
25107;SDS011;13090;53.422;7.670;2022-12-16T22:33:55;72.07;;;30.52;;
25107;SDS011;13090;53.422;7.670;2022-12-16T22:39:01;73.68;;;31.48;;
25107;SDS011;13090;53.422;7.670;2022-12-16T22:44:04;71.63;;;30.50;;
25107;SDS011;13090;53.422;7.670;2022-12-16T22:49:06;68.93;;;29.42;;
25107;SDS011;13090;53.422;7.670;2022-12-16T22:54:09;74.15;;;29.92;;
25107;SDS011;13090;53.422;7.670;2022-12-16T22:59:11;77.45;;;30.05;;
25107;SDS011;13090;53.422;7.670;2022-12-16T23:04:13;70.70;;;28.70;;
25107;SDS011;13090;53.422;7.670;2022-12-16T23:09:17;65.63;;;28.42;;
25107;SDS011;13090;53.422;7.670;2022-12-16T23:14:19;61.17;;;26.42;;
25107;SDS011;13090;53.422;7.670;2022-12-16T23:19:21;62.33;;;27.75;;
25107;SDS011;13090;53.422;7.670;2022-12-16T23:24:25;77.45;;;28.00;;
25107;SDS011;13090;53.422;7.670;2022-12-16T23:29:27;73.63;;;28.25;;
25107;SDS011;13090;53.422;7.670;2022-12-16T23:34:29;80.90;;;31.25;;
25107;SDS011;13090;53.422;7.670;2022-12-16T23:39:32;84.65;;;28.65;;
25107;SDS011;13090;53.422;7.670;2022-12-16T23:44:35;68.82;;;27.55;;
25107;SDS011;13090;53.422;7.670;2022-12-16T23:49:37;76.88;;;27.77;;
25107;SDS011;13090;53.422;7.670;2022-12-16T23:54:40;65.40;;;26.38;;
25107;SDS011;13090;53.422;7.670;2022-12-16T23:59:43;76.57;;;27.02;;
